Time;durP1;ratioP1;P1;durP2;ratioP2;P2;SDS_P1;SDS_P2;PMS_P1;PMS_P2;Temp;Humidity;BMP_temperature;BMP_pressure;BME280_temperature;BME280_humidity;BME280_pressure;Samples;Min_cycle;Max_cycle;Signal;HPM_P1;HPM_P2
2023/09/28 00:09:58;;;;;;;22.60;14.80;;;;;;;14.74;75.28;99149.48;435311;1255;107681;-43
2023/09/28 00:30:42;;;;;;;20.50;14.00;;;;;;;14.56;75.50;99142.55;423279;1293;638712;-42
2023/09/28 00:40:46;;;;;;;19.70;14.30;;;;;;;14.34;75.53;99141.32;433235;1263;383675;-42
2023/09/28 00:50:50;;;;;;;21.40;13.80;;;;;;;14.24;75.92;99142.80;433926;1257;109356;-42
2023/09/28 01:00:55;;;;;;;20.80;15.10;;;;;;;14.10;76.02;99145.17;433959;1261;95667;-42
2023/09/28 01:31:08;;;;;;;28.70;18.80;;;;;;;13.95;77.17;99136.55;433861;1257;95467;-42
2023/09/28 01:41:12;;;;;;;31.20;21.30;;;;;;;14.13;78.59;99131.81;433855;1263;106997;-43
2023/09/28 01:51:19;;;;;;;30.50;19.50;;;;;;;14.24;79.53;99125.63;434058;1263;95197;-43
2023/09/28 02:01:22;;;;;;;20.10;17.00;;;;;;;14.35;79.33;99126.70;433928;1260;95470;-42
2023/09/28 02:11:26;;;;;;;25.90;16.40;;;;;;;14.33;79.48;99125.50;432455;1265;108822;-42
2023/09/28 02:21:33;;;;;;;22.50;17.40;;;;;;;14.33;79.58;99124.42;432279;1274;107037;-42
2023/09/28 02:31:40;;;;;;;23.00;14.90;;;;;;;14.37;79.63;99127.24;432557;1265;95236;-42
2023/09/28 02:41:44;;;;;;;18.50;14.60;;;;;;;14.34;79.56;99118.91;432563;1261;107970;-43
2023/09/28 02:51:50;;;;;;;21.00;16.00;;;;;;;14.30;79.63;99120.13;432419;1264;95570;-43
2023/09/28 03:01:55;;;;;;;25.50;18.80;;;;;;;14.22;79.73;99121.65;432309;1264;109050;-43
2023/09/28 03:12:01;;;;;;;30.00;19.30;;;;;;;14.17;80.05;99122.88;432398;1261;108391;-43
2023/09/28 03:22:05;;;;;;;29.40;19.40;;;;;;;14.12;80.23;99116.00;435294;1256;96109;-42
2023/09/28 03:32:09;;;;;;;26.80;19.50;;;;;;;14.10;80.73;99115.97;435354;1262;108208;-43
2023/09/28 03:42:13;;;;;;;25.00;19.50;;;;;;;14.08;80.72;99110.67;435499;1256;96554;-43
2023/09/28 03:52:20;;;;;;;27.60;19.50;;;;;;;14.00;80.96;99114.63;435273;1256;108980;-43
2023/09/28 04:22:34;;;;;;;27.60;18.60;;;;;;;13.65;81.01;99104.69;435264;1256;107209;-42
2023/09/28 04:32:38;;;;;;;34.80;24.30;;;;;;;13.50;81.00;99106.48;435280;1265;95455;-43
2023/09/28 04:42:46;;;;;;;30.50;21.60;;;;;;;13.37;81.39;99109.73;435218;1264;96144;-42
2023/09/28 04:52:50;;;;;;;35.30;24.40;;;;;;;13.36;81.88;99116.20;435102;1258;108619;-42
2023/09/28 05:02:54;;;;;;;36.70;22.80;;;;;;;13.42;82.43;99120.89;435207;1251;96080;-42
2023/09/28 05:12:59;;;;;;;34.20;23.40;;;;;;;13.45;82.94;99119.40;435262;1256;108416;-42
2023/09/28 05:23:06;;;;;;;30.80;19.90;;;;;;;13.56;83.80;99121.38;435145;1257;109200;-42
2023/09/28 05:33:10;;;;;;;30.80;19.90;;;;;;;14.30;84.43;99122.74;435320;1251;97047;-43
2023/09/28 05:43:13;;;;;;;28.60;20.50;;;;;;;14.78;83.89;99130.04;435270;1257;108154;-41
2023/09/28 05:53:17;;;;;;;34.90;19.70;;;;;;;15.64;84.01;99133.48;435205;1256;96028;-42
2023/09/28 06:03:21;;;;;;;28.50;19.30;;;;;;;16.46;83.29;99135.39;435273;1251;109017;-44
2023/09/28 06:13:24;;;;;;;35.00;18.10;;;;;;;17.33;82.44;99137.32;435325;1251;96129;-43
2023/09/28 06:33:34;;;;;;;31.30;19.90;;;;;;;18.73;80.22;99150.42;435386;1255;109348;-43
2023/09/28 06:43:38;;;;;;;27.40;17.50;;;;;;;18.94;78.47;99152.08;435309;1256;108198;-42
2023/09/28 06:53:42;;;;;;;24.70;18.00;;;;;;;18.58;77.62;99153.91;435297;1257;96107;-43
2023/09/28 07:03:47;;;;;;;30.40;17.20;;;;;;;18.41;77.64;99159.42;435387;1251;96256;-42
2023/09/28 07:34:22;;;;;;;21.50;13.30;;;;;;;19.33;76.42;99163.10;435172;1251;96003;-42
2023/09/28 07:44:27;;;;;;;27.70;14.60;;;;;;;19.96;75.87;99163.20;435363;1251;97161;-42
2023/09/28 07:54:30;;;;;;;19.80;13.90;;;;;;;20.92;75.02;99160.73;435253;1257;107914;-41
2023/09/28 08:04:34;;;;;;;17.30;12.00;;;;;;;21.89;73.83;99171.08;435251;1252;96392;-42
2023/09/28 08:25:08;;;;;;;14.10;10.10;;;;;;;22.80;69.31;99171.58;435427;1256;108892;-41
2023/09/28 08:35:12;;;;;;;13.40;9.40;;;;;;;23.51;69.19;99170.83;435190;1256;95314;-41
2023/09/28 08:45:16;;;;;;;12.10;9.60;;;;;;;24.08;68.08;99172.92;435382;1256;96116;-42
2023/09/28 09:05:23;;;;;;;14.30;7.60;;;;;;;24.56;64.30;99179.49;435372;1251;95658;-42
2023/09/28 09:15:26;;;;;;;9.60;7.40;;;;;;;24.92;62.95;99175.06;435345;1256;96546;-42
2023/09/28 09:25:39;;;;;;;13.60;8.30;;;;;;;25.32;61.96;99171.36;435424;1256;108408;-42
2023/09/28 09:35:43;;;;;;;12.50;7.60;;;;;;;25.53;59.98;99172.70;435265;1257;96896;-43
2023/09/28 09:45:50;;;;;;;9.60;6.80;;;;;;;25.88;59.67;99168.84;435484;1251;95826;-42
2023/09/28 10:06:02;;;;;;;10.10;6.60;;;;;;;26.36;57.42;99171.58;435409;1256;95517;-42
2023/09/28 10:16:08;;;;;;;7.80;6.10;;;;;;;26.09;53.57;99161.42;435214;1256;96120;-42
2023/09/28 10:26:13;;;;;;;9.60;6.70;;;;;;;26.02;52.50;99158.81;435385;1250;106922;-41
2023/09/28 10:36:16;;;;;;;9.40;6.00;;;;;;;26.17;51.47;99153.59;435263;1256;95679;-41
2023/09/28 10:46:20;;;;;;;9.60;4.90;;;;;;;26.37;50.42;99153.10;435319;1256;96070;-42
2023/09/28 10:56:38;;;;;;;10.00;5.40;;;;;;;26.48;50.34;99151.98;435409;1256;107400;-42
2023/09/28 11:16:52;;;;;;;8.50;5.60;;;;;;;26.42;47.26;99148.98;435303;1253;95334;-41
2023/09/28 11:36:59;;;;;;;7.40;5.50;;;;;;;26.37;47.06;99137.52;435278;1256;95782;-42
2023/09/28 11:57:12;;;;;;;11.60;5.20;;;;;;;26.24;45.97;99127.26;435255;1254;96121;-42
2023/09/28 12:17:18;;;;;;;8.50;5.20;;;;;;;26.02;45.28;99114.83;435339;1256;95714;-42
2023/09/28 12:27:22;;;;;;;9.00;5.00;;;;;;;25.95;43.99;99110.04;435278;1256;95379;-42
2023/09/28 12:37:26;;;;;;;14.70;5.70;;;;;;;25.79;43.65;99102.52;435164;1251;322703;-42
2023/09/28 12:47:32;;;;;;;10.80;5.20;;;;;;;25.63;42.86;99093.34;435266;1256;108603;-41
2023/09/28 13:07:38;;;;;;;8.70;5.10;;;;;;;25.50;42.15;99092.63;435290;1256;95801;-41
2023/09/28 13:17:43;;;;;;;7.50;5.00;;;;;;;25.47;42.30;99091.20;435251;1256;107787;-40
2023/09/28 13:27:46;;;;;;;12.70;6.20;;;;;;;25.41;41.89;99084.64;435324;1256;96520;-41
2023/09/28 13:37:50;;;;;;;10.50;5.20;;;;;;;25.33;41.60;99082.38;435371;1253;95611;-44
2023/09/28 13:47:54;;;;;;;121.80;12.30;;;;;;;25.26;41.67;99080.78;435396;1256;107852;-42
2023/09/28 14:08:03;;;;;;;9.20;5.40;;;;;;;25.16;41.17;99074.98;435415;1256;95355;-43
2023/09/28 14:18:08;;;;;;;11.70;5.90;;;;;;;25.12;41.41;99067.98;435285;1256;109699;-42
2023/09/28 14:28:12;;;;;;;42.80;7.10;;;;;;;25.01;41.31;99067.91;436096;1251;96962;-43
2023/09/28 14:38:15;;;;;;;20.70;6.40;;;;;;;24.85;42.25;99063.90;435891;1253;96111;-43
2023/09/28 14:48:19;;;;;;;17.40;5.90;;;;;;;24.68;42.36;99065.94;435950;1253;108099;-43
2023/09/28 15:08:27;;;;;;;10.00;6.20;;;;;;;24.33;43.09;99065.18;435981;1253;95278;-42
2023/09/28 15:18:31;;;;;;;10.10;5.50;;;;;;;24.15;43.24;99066.31;435836;1252;107781;-42
2023/09/28 15:28:39;;;;;;;11.40;5.50;;;;;;;23.95;43.61;99067.07;435942;1250;95360;-41
2023/09/28 15:48:49;;;;;;;;;;;;;;;23.28;44.65;99059.44;435847;1251;109321;-44
2023/09/28 16:08:58;;;;;;;16.00;6.60;;;;;;;22.35;46.48;99061.09;435945;1253;96537;-42
2023/09/28 16:19:05;;;;;;;17.10;6.90;;;;;;;21.79;47.57;99059.73;435823;1253;96275;-42
2023/09/28 16:39:11;;;;;;;18.20;9.40;;;;;;;20.47;49.86;99067.61;435845;1253;95870;-42
2023/09/28 16:49:15;;;;;;;19.90;9.50;;;;;;;19.94;51.15;99075.08;435792;1253;96637;-43
2023/09/28 16:59:20;;;;;;;31.90;12.80;;;;;;;19.42;51.94;99067.34;435816;1252;95284;-43
2023/09/28 17:09:25;;;;;;;24.80;13.40;;;;;;;18.94;53.05;99066.14;436217;1251;107092;-43
2023/09/28 17:19:29;;;;;;;30.10;18.10;;;;;;;18.62;53.88;99066.49;436337;1250;98363;-43
2023/09/28 17:29:32;;;;;;;36.10;17.80;;;;;;;18.38;54.82;99067.59;436378;1253;108545;-42
2023/09/28 17:39:37;;;;;;;23.40;14.60;;;;;;;18.16;55.55;99068.98;436222;1252;97921;-43
2023/09/28 17:49:42;;;;;;;26.90;15.90;;;;;;;18.19;56.13;99082.73;436328;1251;110721;-42
2023/09/28 17:59:46;;;;;;;29.40;14.70;;;;;;;18.03;56.93;99096.40;436245;1249;107487;-43
2023/09/28 18:29:58;;;;;;;23.60;12.50;;;;;;;18.08;59.08;99120.54;436087;1253;107515;-42
2023/09/28 18:40:17;;;;;;;21.70;13.80;;;;;;;18.17;59.52;99127.07;435959;1253;97435;-40
2023/09/28 18:50:20;;;;;;;26.80;16.90;;;;;;;18.19;60.44;99128.46;435932;1253;106762;-41
2023/09/28 19:00:23;;;;;;;23.60;17.40;;;;;;;18.12;61.43;99135.58;435844;1253;97872;-42
2023/09/28 19:10:31;;;;;;;30.00;16.20;;;;;;;18.04;62.05;99137.23;435871;1253;110874;-42
2023/09/28 19:20:34;;;;;;;26.00;16.20;;;;;;;17.95;62.44;99150.65;435887;1253;107316;-43
2023/09/28 19:30:37;;;;;;;36.60;20.50;;;;;;;17.71;62.78;99153.95;436185;1252;97921;-41
2023/09/28 20:00:47;;;;;;;25.60;15.60;;;;;;;16.91;64.47;99160.78;436155;1253;110099;-42
2023/09/28 20:20:54;;;;;;;29.60;17.90;;;;;;;16.81;65.72;99158.90;435931;1254;97921;-42
2023/09/28 20:41:03;;;;;;;26.20;14.00;;;;;;;16.80;66.36;99156.97;435859;1263;107943;-42
2023/09/28 20:51:05;;;;;;;27.90;15.90;;;;;;;16.93;66.72;99157.74;436217;1250;97893;-41
2023/09/28 21:01:08;;;;;;;22.70;15.00;;;;;;;16.88;67.19;99159.96;436363;1248;108527;-43
2023/09/28 21:21:20;;;;;;;28.90;16.80;;;;;;;16.62;67.88;99165.63;436225;1261;108997;-41
2023/09/28 21:31:24;;;;;;;20.40;15.30;;;;;;;16.47;68.74;99168.92;436319;1253;108492;-42
2023/09/28 21:41:28;;;;;;;20.90;14.00;;;;;;;16.42;68.96;99165.25;436325;1252;97846;-42
2023/09/28 21:51:56;;;;;;;19.00;14.60;;;;;;;16.32;69.37;99159.08;436308;1262;107438;-42
2023/09/28 22:22:06;;;;;;;31.00;18.60;;;;;;;15.81;70.00;99157.36;436290;1262;107145;-41
2023/09/28 22:52:20;;;;;;;;;;;;;;;15.48;71.27;99158.83;436083;1254;96655;-42
2023/09/28 23:02:23;;;;;;;34.20;22.10;;;;;;;15.31;71.91;99154.55;435997;1261;109514;-42
2023/09/28 23:12:42;;;;;;;39.00;24.00;;;;;;;15.18;72.90;99152.02;436031;1248;108067;-42
2023/09/28 23:22:51;;;;;;;31.60;19.20;;;;;;;15.16;72.98;99158.10;435909;1271;97925;-42
2023/09/28 23:32:59;;;;;;;31.30;18.50;;;;;;;15.06;73.02;99155.84;435844;1263;108451;-43
2023/09/28 23:43:04;;;;;;;28.60;19.60;;;;;;;14.98;73.35;99162.92;435975;1253;98381;-41
2023/09/28 23:53:09;;;;;;;34.30;19.60;;;;;;;14.91;73.61;99165.02;435997;1254;110431;-42
